Time;durP1;ratioP1;P1;durP2;ratioP2;P2;SDS_P1;SDS_P2;PMS_P1;PMS_P2;Temp;Humidity;BMP_temperature;BMP_pressure;BME280_temperature;BME280_humidity;BME280_pressure;Samples;Min_cycle;Max_cycle;Signal;HPM_P1;HPM_P2
2023/01/07 00:01:16;;;;;;;13.23;8.43;;;8.50;99.90;;;6.97;100.00;100888.56;5014253;28;20034;-77
2023/01/07 00:03:45;;;;;;;16.48;8.25;;;8.50;99.90;;;6.93;100.00;100889.97;4994109;28;20482;-77
2023/01/07 00:06:18;;;;;;;11.65;7.85;;;8.50;99.90;;;6.96;100.00;100895.00;5005501;28;20042;-77
2023/01/07 00:08:47;;;;;;;11.35;7.97;;;8.50;99.90;;;6.98;100.00;100897.53;5011066;28;20133;-78
2023/01/07 00:11:17;;;;;;;12.88;7.97;;;8.50;99.90;;;6.94;100.00;100888.06;4999810;28;20073;-76
2023/01/07 00:13:44;;;;;;;13.35;8.35;;;8.50;99.90;;;6.94;100.00;100888.94;5007422;28;20036;-76
2023/01/07 00:16:14;;;;;;;10.73;7.18;;;8.50;99.90;;;6.99;100.00;100891.06;5000472;28;20056;-77
2023/01/07 00:18:41;;;;;;;11.13;7.55;;;8.50;99.90;;;7.00;100.00;100885.47;5005572;28;20398;-77
2023/01/07 00:21:11;;;;;;;10.17;7.03;;;8.50;99.90;;;7.05;100.00;100891.16;5002076;28;20030;-77
2023/01/07 00:23:39;;;;;;;10.18;6.45;;;8.60;99.90;;;7.07;100.00;100891.00;5009064;28;20096;-76
2023/01/07 00:26:16;;;;;;;9.32;5.95;;;8.60;99.90;;;7.12;100.00;100884.97;4997946;28;20030;-77
2023/01/07 00:28:46;;;;;;;10.18;6.88;;;8.60;99.90;;;7.19;100.00;100888.66;4998850;28;20031;-77
2023/01/07 00:31:18;;;;;;;8.85;6.65;;;8.70;99.90;;;7.20;100.00;100877.59;5002181;28;20034;-77
2023/01/07 00:33:50;;;;;;;12.35;6.43;;;8.70;99.90;;;7.25;100.00;100881.59;5005078;28;20042;-77
2023/01/07 00:36:18;;;;;;;8.98;6.10;;;8.80;99.90;;;7.32;100.00;100887.97;5011378;28;20099;-77
2023/01/07 00:38:43;;;;;;;9.57;6.57;;;8.80;99.90;;;7.31;100.00;100887.13;5006535;28;20517;-78
2023/01/07 00:41:10;;;;;;;8.15;5.80;;;8.90;99.90;;;7.28;100.00;100887.50;5009891;28;20041;-78
2023/01/07 00:43:36;;;;;;;8.20;5.93;;;8.80;99.90;;;7.31;100.00;100880.88;5007140;28;20084;-78
2023/01/07 00:46:02;;;;;;;8.38;5.50;;;8.80;99.90;;;7.32;100.00;100879.84;5000943;28;20030;-77
2023/01/07 00:48:28;;;;;;;9.40;6.43;;;8.80;99.90;;;7.27;100.00;100872.25;4994820;28;20042;-77
2023/01/07 00:50:54;;;;;;;9.15;5.60;;;8.80;99.90;;;7.30;100.00;100874.59;4995164;28;20045;-78
2023/01/07 00:53:21;;;;;;;8.77;5.80;;;8.80;99.90;;;7.26;100.00;100862.44;5010650;28;20065;-78
2023/01/07 00:55:49;;;;;;;10.02;5.70;;;8.80;99.90;;;7.30;100.00;100876.47;5025695;28;20037;-78
2023/01/07 00:58:20;;;;;;;8.45;6.05;;;8.80;99.90;;;7.29;100.00;100872.91;5011037;28;20029;-78
2023/01/07 01:00:47;;;;;;;9.68;5.82;;;8.80;99.90;;;7.32;100.00;100882.56;4992298;28;20046;-78
2023/01/07 01:03:13;;;;;;;8.98;6.15;;;8.80;99.90;;;7.30;100.00;100885.44;5008738;28;20030;-77
2023/01/07 01:05:40;;;;;;;8.38;5.28;;;8.80;99.90;;;7.41;100.00;100883.25;4999126;28;20032;-77
2023/01/07 01:08:10;;;;;;;8.32;5.53;;;8.90;99.90;;;7.42;100.00;100884.94;5001421;28;20070;-77
2023/01/07 01:10:36;;;;;;;7.47;5.20;;;8.90;99.90;;;7.45;100.00;100884.59;4991731;28;20506;-77
2023/01/07 01:13:03;;;;;;;8.15;4.82;;;8.90;99.90;;;7.42;100.00;100874.09;4992440;28;20050;-77
2023/01/07 01:15:28;;;;;;;7.68;5.13;;;9.00;99.90;;;7.39;100.00;100869.91;5022543;28;20464;-78
2023/01/07 01:17:54;;;;;;;6.47;4.63;;;8.90;99.90;;;7.38;100.00;100867.34;5008112;28;20038;-78
2023/01/07 01:20:21;;;;;;;6.47;4.38;;;8.90;99.90;;;7.41;100.00;100864.25;5007871;28;20109;-77
2023/01/07 01:22:47;;;;;;;5.88;4.32;;;8.90;99.90;;;7.42;100.00;100865.94;4999768;28;20026;-78
2023/01/07 01:25:14;;;;;;;5.95;4.10;;;8.90;99.90;;;7.35;100.00;100849.59;4991406;28;20125;-78
2023/01/07 01:27:40;;;;;;;6.15;4.20;;;8.90;99.90;;;7.34;100.00;100853.34;5002826;28;20113;-78
2023/01/07 01:30:07;;;;;;;6.38;4.15;;;8.90;99.90;;;7.34;100.00;100853.34;5006149;28;20572;-77
2023/01/07 01:32:35;;;;;;;5.40;3.92;;;8.90;99.90;;;7.38;100.00;100857.34;4998190;28;20559;-77
2023/01/07 01:35:01;;;;;;;7.32;3.83;;;8.90;99.90;;;7.39;100.00;100855.47;5001249;28;20030;-77
2023/01/07 01:37:27;;;;;;;6.10;4.30;;;8.90;99.90;;;7.37;100.00;100860.25;4993509;28;20038;-77
2023/01/07 01:39:53;;;;;;;5.60;3.88;;;8.90;99.90;;;7.26;100.00;100851.56;5006872;28;20026;-76
2023/01/07 01:42:22;;;;;;;5.55;3.70;;;8.80;99.90;;;7.28;100.00;100854.09;5021102;28;20053;-77
2023/01/07 01:44:56;;;;;;;6.00;3.95;;;8.80;99.90;;;7.20;100.00;100850.44;5007838;28;20034;-77
2023/01/07 01:47:47;;;;;;;6.57;3.72;;;8.70;99.90;;;7.16;100.00;100842.88;4994874;28;20042;-77
2023/01/07 01:50:28;;;;;;;5.30;3.67;;;8.70;99.90;;;7.11;100.00;100838.03;5004152;28;20042;-77
2023/01/07 01:53:30;;;;;;;5.28;3.50;;;8.70;99.90;;;7.08;100.00;100840.28;5001502;28;20037;-77
2023/01/07 01:56:09;;;;;;;5.85;3.63;;;8.60;99.90;;;7.02;100.00;100845.44;4987320;28;20072;-77
2023/01/07 01:58:42;;;;;;;5.63;3.65;;;8.60;99.90;;;6.91;100.00;100837.78;5003522;28;20493;-78
2023/01/07 02:01:08;;;;;;;7.60;3.53;;;8.50;99.90;;;6.89;100.00;100840.66;5009498;28;20034;-78
2023/01/07 02:03:36;;;;;;;5.85;3.72;;;8.40;99.90;;;6.86;100.00;100846.47;5001220;28;20600;-78
2023/01/07 02:06:04;;;;;;;6.50;4.00;;;8.40;99.90;;;6.84;100.00;100834.13;5004026;28;20035;-78
2023/01/07 02:08:30;;;;;;;6.13;4.20;;;8.40;99.90;;;6.75;100.00;100819.81;5001473;28;20132;-77
2023/01/07 02:11:37;;;;;;;6.18;4.15;;;8.40;99.90;;;6.82;100.00;100828.88;4993112;28;20038;-78
2023/01/07 02:14:38;;;;;;;5.68;3.85;;;8.30;99.90;;;6.84;100.00;100834.13;5004911;28;20038;-78
2023/01/07 02:17:22;;;;;;;6.60;4.28;;;8.30;99.90;;;6.81;100.00;100827.22;5004957;28;20037;-78
2023/01/07 02:20:33;;;;;;;6.53;4.28;;;8.30;99.90;;;6.78;100.00;100821.31;5001382;28;20452;-78
2023/01/07 02:23:44;;;;;;;6.95;4.53;;;8.30;99.90;;;6.78;100.00;100821.31;5010980;28;20038;-78
2023/01/07 02:27:00;;;;;;;6.80;4.32;;;8.30;99.90;;;6.80;100.00;100819.25;4993807;28;20104;-78
2023/01/07 02:30:10;;;;;;;6.68;4.60;;;8.30;99.90;;;6.93;100.00;100824.88;4994792;28;20030;-78
2023/01/07 02:33:12;;;;;;;6.30;4.65;;;8.40;99.90;;;6.96;100.00;100807.34;5011064;28;20433;-77
2023/01/07 02:36:08;;;;;;;7.88;5.20;;;8.50;99.90;;;7.02;100.00;100812.88;4995996;28;20041;-78
2023/01/07 02:39:10;;;;;;;6.57;4.78;;;8.60;99.90;;;7.09;100.00;100809.41;4994140;28;20042;-78
2023/01/07 02:41:57;;;;;;;6.57;4.57;;;8.60;99.90;;;7.12;100.00;100811.72;5005313;28;20066;-78
2023/01/07 02:44:44;;;;;;;7.00;4.78;;;8.60;99.90;;;7.10;100.00;100803.78;4994220;28;20038;-78
2023/01/07 02:47:52;;;;;;;8.25;4.97;;;8.70;99.90;;;7.08;100.00;100799.56;5000702;28;20417;-78
2023/01/07 02:50:18;;;;;;;8.60;4.82;;;8.70;99.90;;;7.14;100.00;100805.09;4993623;28;20046;-77
2023/01/07 02:52:44;;;;;;;8.13;5.22;;;8.70;99.90;;;7.14;100.00;100793.38;5001399;28;20037;-78
2023/01/07 02:55:21;;;;;;;7.53;5.15;;;8.70;99.90;;;7.12;100.00;100792.72;4996381;28;20046;-78
2023/01/07 02:58:25;;;;;;;7.30;5.10;;;8.70;99.90;;;7.17;100.00;100791.13;5009682;28;20041;-78
2023/01/07 03:01:44;;;;;;;7.82;5.47;;;8.70;99.90;;;7.18;100.00;100800.97;5010881;28;20034;-78
2023/01/07 03:05:15;;;;;;;7.82;5.47;;;8.70;99.90;;;7.17;100.00;100795.75;5010694;28;20044;-78
2023/01/07 03:08:19;;;;;;;7.78;5.50;;;8.70;99.90;;;7.14;100.00;100796.09;4946794;28;20561;-78
2023/01/07 03:10:58;;;;;;;9.15;5.53;;;8.70;99.90;;;7.14;100.00;100798.81;5001569;28;20095;-77
2023/01/07 03:13:39;;;;;;;8.02;5.70;;;8.60;99.90;;;7.04;100.00;100788.28;5011147;28;20117;-78
2023/01/07 03:16:42;;;;;;;7.75;5.40;;;8.60;99.90;;;7.01;100.00;100792.19;5002994;28;20038;-77
2023/01/07 03:19:35;;;;;;;8.07;5.47;;;8.50;99.90;;;7.03;100.00;100787.44;5010863;28;20049;-78
2023/01/07 03:22:04;;;;;;;9.05;6.18;;;8.50;99.90;;;7.10;100.00;100779.38;4995272;28;20113;-77
2023/01/07 03:24:31;;;;;;;8.82;5.80;;;8.60;99.90;;;7.17;100.00;100777.56;5003373;28;20034;-78
2023/01/07 03:27:02;;;;;;;8.63;5.97;;;8.70;99.90;;;7.18;100.00;100778.44;5008280;28;20479;-77
2023/01/07 03:29:31;;;;;;;8.70;6.28;;;8.70;99.90;;;7.21;100.00;100783.47;4994586;28;20448;-78
2023/01/07 03:32:24;;;;;;;9.38;6.72;;;8.70;99.90;;;7.24;100.00;100772.22;4993477;28;20037;-78
2023/01/07 03:34:51;;;;;;;10.23;6.50;;;8.80;99.90;;;7.18;100.00;100779.25;4997757;28;20053;-78
2023/01/07 03:37:21;;;;;;;9.27;5.43;;;8.70;99.90;;;7.18;100.00;100773.00;4995945;28;20037;-78
2023/01/07 03:39:48;;;;;;;9.43;5.22;;;8.70;99.90;;;7.14;100.00;100771.66;4982164;28;20054;-78
2023/01/07 03:42:40;;;;;;;8.75;4.80;;;8.70;99.90;;;7.13;100.00;100775.41;5016238;28;20038;-78
2023/01/07 03:45:24;;;;;;;7.15;5.35;;;8.60;99.90;;;7.04;100.00;100767.41;4993812;28;20045;-78
2023/01/07 03:47:55;;;;;;;7.30;4.75;;;8.60;99.90;;;7.02;100.00;100769.47;4999120;28;20070;-78
2023/01/07 03:50:23;;;;;;;7.03;4.90;;;8.60;99.90;;;7.04;100.00;100766.59;5005139;28;20042;-78
2023/01/07 03:52:50;;;;;;;7.25;5.03;;;8.60;99.90;;;7.08;100.00;100767.03;5009488;28;20190;-78
2023/01/07 03:55:17;;;;;;;8.40;4.32;;;8.60;99.90;;;7.10;100.00;100771.25;5013692;28;20104;-79
2023/01/07 03:57:43;;;;;;;7.38;5.10;;;8.60;99.90;;;7.08;100.00;100769.72;4995224;28;20034;-78
2023/01/07 04:00:11;;;;;;;7.75;5.07;;;8.60;99.90;;;7.10;100.00;100770.38;4995590;28;20035;-78
2023/01/07 04:02:42;;;;;;;8.57;5.88;;;8.60;99.90;;;7.19;100.00;100767.38;4995025;28;20042;-78
2023/01/07 04:05:16;;;;;;;7.63;5.70;;;8.60;99.90;;;7.19;100.00;100753.78;4993269;28;20058;-78
2023/01/07 04:07:42;;;;;;;9.15;6.28;;;8.70;99.90;;;7.26;100.00;100756.59;5010215;28;20405;-78
2023/01/07 04:10:09;;;;;;;8.18;6.07;;;8.70;99.90;;;7.30;100.00;100757.88;5009138;28;20038;-78
2023/01/07 04:12:35;;;;;;;7.05;5.40;;;8.80;99.90;;;7.31;100.00;100758.75;5009565;28;20027;-78
2023/01/07 04:15:02;;;;;;;7.10;5.55;;;8.80;99.90;;;7.33;100.00;100759.38;4993632;28;20038;-78
2023/01/07 04:17:30;;;;;;;7.50;5.55;;;8.80;99.90;;;7.26;100.00;100751.16;5004891;28;20086;-77
2023/01/07 04:19:56;;;;;;;7.20;5.20;;;8.80;99.90;;;7.30;100.00;100759.78;4990115;28;20087;-78
2023/01/07 04:22:22;;;;;;;6.63;4.63;;;8.80;99.90;;;7.25;100.00;100749.47;5010490;28;20038;-78
2023/01/07 04:24:48;;;;;;;6.78;4.60;;;8.80;99.90;;;7.24;100.00;100749.66;4994767;28;20394;-78
2023/01/07 04:27:15;;;;;;;5.95;4.47;;;8.70;99.90;;;7.25;100.00;100737.78;4993844;28;20046;-78
2023/01/07 04:29:41;;;;;;;7.45;5.43;;;8.80;99.90;;;7.30;100.00;100749.75;4992424;28;20026;-78
2023/01/07 04:32:07;;;;;;;7.10;4.75;;;8.80;99.90;;;7.32;100.00;100734.09;5014329;28;20048;-78
2023/01/07 04:34:33;;;;;;;6.43;4.72;;;8.90;99.90;;;7.38;100.00;100745.22;4993439;28;20041;-78
2023/01/07 04:36:59;;;;;;;6.60;4.72;;;8.90;99.90;;;7.37;100.00;100736.25;4993108;28;20049;-77
2023/01/07 04:39:24;;;;;;;5.82;4.28;;;8.90;99.90;;;7.42;100.00;100738.34;4995261;28;20033;-79
2023/01/07 04:41:50;;;;;;;6.57;4.18;;;8.90;99.90;;;7.42;100.00;100736.50;5011430;28;20038;-78
2023/01/07 04:44:16;;;;;;;6.20;4.00;;;8.90;99.90;;;7.39;100.00;100731.47;4999221;28;20094;-78
2023/01/07 04:46:43;;;;;;;5.00;3.50;;;8.90;99.90;;;7.39;100.00;100727.88;5000278;28;20034;-78
2023/01/07 04:49:09;;;;;;;5.05;3.60;;;9.00;99.90;;;7.44;100.00;100728.19;4991187;28;20415;-78
2023/01/07 04:51:36;;;;;;;6.07;3.63;;;9.00;99.90;;;7.50;100.00;100732.81;5000861;28;20118;-78
2023/01/07 04:54:02;;;;;;;4.50;3.22;;;9.00;99.90;;;7.51;100.00;100725.50;5015014;28;20129;-77
2023/01/07 04:56:28;;;;;;;5.30;3.70;;;9.00;99.90;;;7.54;100.00;100717.81;4991139;28;20026;-78
2023/01/07 04:58:54;;;;;;;4.38;3.30;;;9.00;99.90;;;7.48;100.00;100722.13;4993606;28;20403;-78
2023/01/07 05:01:20;;;;;;;5.55;3.83;;;9.00;99.90;;;7.44;100.00;100729.00;4991544;28;20038;-78
2023/01/07 05:03:47;;;;;;;6.30;3.92;;;9.00;99.90;;;7.36;100.00;100715.56;5009015;28;20033;-78
2023/01/07 05:06:14;;;;;;;5.80;4.40;;;8.90;99.90;;;7.34;100.00;100718.47;4991254;28;20125;-78
2023/01/07 05:08:40;;;;;;;7.05;4.63;;;8.90;99.90;;;7.31;100.00;100710.72;4991716;28;20453;-78
2023/01/07 05:11:06;;;;;;;5.82;4.43;;;8.90;99.90;;;7.26;100.00;100709.59;4991729;28;20038;-78
2023/01/07 05:13:34;;;;;;;6.85;4.45;;;8.80;99.90;;;7.28;100.00;100713.81;4990619;28;20034;-77
2023/01/07 05:16:02;;;;;;;7.28;4.88;;;8.80;99.90;;;7.28;100.00;100712.97;4996122;28;20041;-77
2023/01/07 05:18:29;;;;;;;;;;;8.80;99.90;;;7.27;100.00;100714.00;5014081;28;20065;-77
2023/01/07 05:20:55;;;;;;;6.13;4.60;;;8.80;99.90;;;7.23;100.00;100705.41;5007158;28;20013;-78
2023/01/07 05:23:21;;;;;;;7.65;4.72;;;8.80;99.90;;;7.27;100.00;100712.13;4993902;28;20046;-78
2023/01/07 05:25:49;;;;;;;7.03;4.70;;;8.80;99.90;;;7.31;100.00;100720.75;4991508;28;20029;-78
2023/01/07 05:28:14;;;;;;;7.35;4.53;;;8.80;99.90;;;7.23;100.00;100705.41;5006347;28;20402;-78
2023/01/07 05:30:41;;;;;;;5.38;4.05;;;8.80;99.90;;;7.27;100.00;100709.41;4997441;28;20037;-78
2023/01/07 05:33:07;;;;;;;5.13;3.83;;;8.80;99.90;;;7.23;100.00;100699.13;4994065;28;20037;-78
2023/01/07 05:35:34;;;;;;;4.72;3.30;;;8.70;99.90;;;7.21;100.00;100704.78;4992379;28;20129;-77
2023/01/07 05:38:00;;;;;;;4.40;3.17;;;8.70;99.90;;;7.17;100.00;100696.16;5012498;28;20033;-77
2023/01/07 05:40:27;;;;;;;4.45;2.80;;;8.70;99.90;;;7.15;100.00;100708.25;4991261;28;20054;-78
2023/01/07 05:42:53;;;;;;;5.20;2.65;;;8.70;99.90;;;7.17;100.00;100701.59;4993675;28;20101;-78
2023/01/07 05:45:20;;;;;;;4.85;2.70;;;8.70;99.90;;;7.11;100.00;100705.09;4991210;28;20039;-77
2023/01/07 05:47:47;;;;;;;4.15;2.63;;;8.70;99.90;;;7.17;100.00;100700.78;4993349;28;20065;-78
2023/01/07 05:50:13;;;;;;;4.20;2.47;;;8.70;99.90;;;7.13;100.00;100699.44;4993017;28;20034;-77
2023/01/07 05:52:39;;;;;;;3.60;2.47;;;8.70;99.90;;;7.26;100.00;100707.75;5010229;28;20437;-77
2023/01/07 05:55:07;;;;;;;4.47;2.58;;;8.70;99.90;;;7.32;100.00;100709.69;4997794;28;20046;-78
2023/01/07 05:57:32;;;;;;;4.28;2.38;;;8.80;99.90;;;7.33;100.00;100713.25;5003143;28;20603;-78
2023/01/07 05:59:58;;;;;;;4.07;2.67;;;8.80;99.90;;;7.38;100.00;100716.22;5001733;28;20034;-78
2023/01/07 06:02:24;;;;;;;5.07;2.83;;;8.90;99.90;;;7.45;100.00;100721.72;5018652;28;20053;-78
2023/01/07 06:04:50;;;;;;;3.53;2.42;;;9.00;99.90;;;7.44;100.00;100717.31;4996600;28;20046;-78
2023/01/07 06:07:15;;;;;;;3.83;2.40;;;9.00;99.90;;;7.48;100.00;100719.44;4997057;28;20034;-79
2023/01/07 06:09:41;;;;;;;4.03;2.50;;;9.00;99.90;;;7.47;100.00;100716.94;4996145;28;20117;-79
2023/01/07 06:12:07;;;;;;;5.63;2.70;;;9.00;99.90;;;7.45;100.00;100724.44;5003076;28;20049;-78
2023/01/07 06:14:32;;;;;;;3.83;2.17;;;9.00;99.90;;;7.36;100.00;100726.41;4997054;28;20034;-78
2023/01/07 06:16:58;;;;;;;3.65;2.45;;;8.90;99.90;;;7.29;100.00;100723.63;4996429;28;20053;-79
2023/01/07 06:19:25;;;;;;;4.07;2.30;;;8.80;99.90;;;7.29;100.00;100725.50;5001204;28;20096;-78
2023/01/07 06:21:51;;;;;;;3.30;2.10;;;8.80;99.90;;;7.20;100.00;100716.66;4995738;28;20038;-78
2023/01/07 06:24:16;;;;;;;4.65;2.10;;;8.80;99.90;;;7.19;100.00;100725.84;5011767;28;20042;-78
2023/01/07 06:26:42;;;;;;;2.75;1.73;;;8.70;99.90;;;7.25;100.00;100727.78;5001420;28;20437;-80
2023/01/07 06:29:09;;;;;;;3.22;1.98;;;8.70;99.90;;;7.22;100.00;100720.03;5011110;28;20042;-77
2023/01/07 06:31:35;;;;;;;3.60;2.00;;;8.70;99.90;;;7.17;100.00;100722.47;4996444;28;20042;-79
2023/01/07 06:34:01;;;;;;;5.00;2.22;;;8.70;99.90;;;7.08;100.00;100710.03;4996988;28;20049;-79
2023/01/07 06:36:26;;;;;;;3.83;2.55;;;8.70;99.90;;;7.09;100.00;100709.00;4996326;28;20042;-78
2023/01/07 06:38:52;;;;;;;4.22;2.22;;;8.60;99.90;;;7.09;100.00;100711.72;4996603;28;20499;-78
2023/01/07 06:41:18;;;;;;;4.78;2.30;;;8.60;99.90;;;6.99;100.00;100706.59;4995135;28;20030;-78
2023/01/07 06:43:44;;;;;;;3.72;2.33;;;8.60;99.90;;;7.00;100.00;100706.44;4995767;28;20038;-78
2023/01/07 06:46:09;;;;;;;4.57;2.63;;;8.50;99.90;;;6.97;100.00;100703.25;4994829;28;20516;-78
2023/01/07 06:48:35;;;;;;;4.47;2.78;;;8.50;99.90;;;6.99;100.00;100699.31;4999044;28;20528;-77
2023/01/07 06:51:01;;;;;;;4.88;2.92;;;8.50;99.90;;;7.00;100.00;100689.28;5011443;28;20057;-78
2023/01/07 06:53:26;;;;;;;4.78;3.25;;;8.50;99.90;;;7.02;100.00;100692.66;5012394;28;20478;-78
2023/01/07 06:55:52;;;;;;;4.68;3.20;;;8.50;99.90;;;7.00;100.00;100690.16;5002040;28;20034;-77
2023/01/07 06:58:18;;;;;;;5.53;3.00;;;8.50;99.90;;;7.01;100.00;100694.53;5002208;28;20104;-76
2023/01/07 07:00:44;;;;;;;6.10;2.80;;;8.50;99.90;;;6.99;100.00;100699.31;4994697;28;20502;-77
2023/01/07 07:03:10;;;;;;;4.03;2.53;;;8.50;99.90;;;6.99;100.00;100693.03;4993597;28;20042;-78
2023/01/07 07:05:36;;;;;;;3.92;2.60;;;8.50;99.90;;;6.95;100.00;100702.59;4995601;28;20045;-78
2023/01/07 07:08:01;;;;;;;3.75;2.15;;;8.50;99.90;;;6.94;100.00;100690.94;4997877;28;20081;-79
2023/01/07 07:10:27;;;;;;;5.30;2.47;;;8.50;99.90;;;6.89;100.00;100683.34;4993025;28;20475;-82
2023/01/07 07:12:53;;;;;;;4.45;3.08;;;8.50;99.90;;;6.94;100.00;100690.06;4999519;28;20050;-79
2023/01/07 07:15:18;;;;;;;4.78;2.38;;;8.50;99.90;;;6.92;100.00;100684.84;4995123;28;20046;-80
2023/01/07 07:17:45;;;;;;;4.13;2.45;;;8.50;99.90;;;6.94;100.00;100690.06;4985040;28;20030;-79
2023/01/07 07:20:11;;;;;;;4.85;2.50;;;8.50;99.90;;;6.90;100.00;100698.59;5000010;28;20055;-79
2023/01/07 07:22:37;;;;;;;3.80;2.30;;;8.50;99.90;;;6.97;100.00;100695.97;4998872;28;20038;-78
2023/01/07 07:25:03;;;;;;;3.92;2.50;;;8.50;99.90;;;6.97;100.00;100700.53;4995079;28;20625;-78
2023/01/07 07:27:29;;;;;;;3.75;2.40;;;8.50;99.90;;;6.91;100.00;100703.00;4999597;28;20034;-78
2023/01/07 07:29:55;;;;;;;4.88;2.35;;;8.50;99.90;;;6.91;100.00;100694.84;4994974;28;20092;-78
2023/01/07 07:32:21;;;;;;;3.85;2.50;;;8.40;99.90;;;6.90;100.00;100703.19;4994740;28;20044;-78
2023/01/07 07:34:47;;;;;;;4.18;2.42;;;8.40;99.90;;;7.02;100.00;100700.78;4994642;28;20045;-79
2023/01/07 07:37:13;;;;;;;4.20;2.75;;;8.50;99.90;;;7.07;100.00;100695.66;4994299;28;20038;-79
2023/01/07 07:39:38;;;;;;;6.40;2.65;;;8.60;99.90;;;7.11;100.00;100696.09;4994435;28;20050;-78
2023/01/07 07:42:04;;;;;;;3.70;2.40;;;8.60;99.90;;;7.10;100.00;100700.69;4994353;28;20101;-78
2023/01/07 07:44:30;;;;;;;3.75;2.53;;;8.60;99.90;;;7.08;100.00;100705.47;4983364;28;1007621;-78
2023/01/07 07:46:56;;;;;;;4.93;3.00;;;8.60;99.90;;;7.09;100.00;100704.44;5004753;28;20037;-77
2023/01/07 07:49:22;;;;;;;4.38;2.80;;;8.70;99.90;;;7.18;100.00;100708.69;4993818;28;20068;-77
2023/01/07 07:51:47;;;;;;;6.93;3.00;;;8.70;99.90;;;7.18;100.00;100702.44;4995760;28;20087;-77
2023/01/07 07:54:13;;;;;;;5.63;3.13;;;8.70;99.90;;;7.22;100.00;100706.44;5010973;28;20038;-77
2023/01/07 07:56:39;;;;;;;4.40;2.75;;;8.80;99.90;;;7.23;100.00;100702.72;4992186;28;20038;-78
2023/01/07 07:59:04;;;;;;;6.45;2.90;;;8.70;99.90;;;7.26;100.00;100702.31;4990230;28;20038;-77
2023/01/07 08:01:30;;;;;;;4.90;3.15;;;8.80;99.90;;;7.31;100.00;100702.56;4997083;28;20133;-76
2023/01/07 08:03:56;;;;;;;4.65;3.08;;;8.80;99.90;;;7.36;100.00;100696.56;4994986;28;20038;-76
2023/01/07 08:06:21;;;;;;;4.60;2.97;;;8.90;99.90;;;7.38;100.00;100699.94;5002595;28;20044;-75
2023/01/07 08:08:47;;;;;;;5.35;2.88;;;8.90;99.90;;;7.41;100.00;100690.53;5006556;28;20476;-76
2023/01/07 08:11:13;;;;;;;4.57;2.75;;;8.90;99.90;;;7.38;100.00;100685.50;5005736;28;20041;-77
2023/01/07 08:13:38;;;;;;;6.88;3.20;;;8.90;99.90;;;7.39;100.00;100684.47;5000775;28;20036;-76
2023/01/07 08:16:04;;;;;;;6.10;3.00;;;8.90;99.90;;;7.41;100.00;100687.81;5007538;28;20045;-76
2023/01/07 08:18:30;;;;;;;4.97;3.17;;;8.90;99.90;;;7.41;100.00;100682.38;5006283;28;20033;-76
2023/01/07 08:20:56;;;;;;;5.68;3.50;;;8.90;99.90;;;7.42;100.00;100686.78;4995795;28;20053;-77
2023/01/07 08:23:22;;;;;;;4.82;3.10;;;8.90;99.90;;;7.36;100.00;100677.56;4989439;28;20053;-76
2023/01/07 08:25:47;;;;;;;5.40;3.15;;;8.90;99.90;;;7.40;100.00;100678.00;4992091;28;20453;-75
2023/01/07 08:28:13;;;;;;;5.53;3.40;;;8.90;99.90;;;7.38;100.00;100680.06;4994207;28;20038;-75
2023/01/07 08:30:39;;;;;;;5.13;3.33;;;8.90;99.90;;;7.34;100.00;100676.94;5006033;28;20264;-75
2023/01/07 08:33:06;;;;;;;5.93;3.17;;;8.90;99.90;;;7.36;100.00;100679.44;5005350;28;20037;-75
2023/01/07 08:35:33;;;;;;;5.40;3.28;;;8.90;99.90;;;7.42;100.00;100671.34;5001742;28;20446;-76
2023/01/07 08:38:08;;;;;;;4.60;3.10;;;8.90;99.90;;;7.50;100.00;100681.25;5001088;28;20065;-75
2023/01/07 08:40:35;;;;;;;5.47;3.65;;;9.00;99.90;;;7.60;100.00;100687.16;5002194;28;20445;-75
2023/01/07 08:43:05;;;;;;;4.80;3.10;;;9.10;99.90;;;7.61;100.00;100693.44;5016352;28;20045;-76
2023/01/07 08:45:31;;;;;;;4.97;3.28;;;9.10;99.90;;;7.59;100.00;100682.78;4997926;28;20042;-76
2023/01/07 08:47:58;;;;;;;6.07;3.92;;;9.10;99.90;;;7.56;100.00;100682.31;5002493;28;20030;-76
2023/01/07 08:50:29;;;;;;;5.03;3.50;;;9.10;99.90;;;7.57;100.00;100684.84;4992003;28;20168;-76
2023/01/07 08:52:55;;;;;;;5.10;3.38;;;9.10;99.90;;;7.62;100.00;100687.81;4991852;28;20033;-77
2023/01/07 08:55:21;;;;;;;4.75;3.30;;;9.10;99.90;;;7.63;100.00;100689.47;5006754;28;20066;-78
2023/01/07 08:57:47;;;;;;;5.30;3.38;;;9.20;99.90;;;7.66;100.00;100695.56;5002131;28;20076;-77
2023/01/07 09:00:18;;;;;;;5.07;3.38;;;9.20;99.90;;;7.70;100.00;100688.72;4994627;28;20065;-76
2023/01/07 09:02:44;;;;;;;7.00;3.38;;;9.20;99.90;;;7.74;100.00;100692.72;4992101;28;20141;-77
2023/01/07 09:05:10;;;;;;;5.78;3.30;;;9.30;99.90;;;7.80;100.00;100691.91;4994156;28;20046;-76
2023/01/07 09:07:36;;;;;;;5.18;3.80;;;9.30;99.90;;;7.88;100.00;100689.03;4992346;28;20038;-76
2023/01/07 09:10:03;;;;;;;4.68;3.10;;;9.40;99.90;;;7.98;100.00;100683.25;4993713;28;20053;-77
2023/01/07 09:12:29;;;;;;;4.90;2.92;;;9.50;99.90;;;8.12;100.00;100686.09;4994075;28;20050;-76
2023/01/07 09:14:54;;;;;;;5.28;3.13;;;9.60;99.90;;;8.23;100.00;100687.41;4999715;28;20042;-76
2023/01/07 09:17:20;;;;;;;4.95;3.00;;;9.70;99.90;;;8.35;100.00;100685.78;4994242;28;20041;-76
2023/01/07 09:19:46;;;;;;;4.30;2.78;;;9.80;99.90;;;8.39;100.00;100694.38;5003533;28;20037;-77
2023/01/07 09:22:12;;;;;;;4.07;2.63;;;9.90;99.90;;;8.55;100.00;100688.63;5006680;28;20026;-75
2023/01/07 09:24:37;;;;;;;4.93;2.95;;;10.00;99.90;;;8.55;100.00;100691.34;5008938;28;20042;-74
2023/01/07 09:27:03;;;;;;;5.03;3.35;;;10.10;99.90;;;8.54;100.00;100689.66;4989363;28;20048;-75
2023/01/07 09:29:29;;;;;;;5.88;3.35;;;10.10;99.90;;;8.55;100.00;100685.06;5008549;28;20508;-75
2023/01/07 09:31:54;;;;;;;4.20;2.78;;;10.10;99.90;;;8.52;100.00;100696.38;5002305;28;20049;-75
2023/01/07 09:34:20;;;;;;;5.35;3.22;;;10.00;99.90;;;8.47;100.00;100695.03;4994574;28;20046;-75
2023/01/07 09:36:46;;;;;;;4.53;3.22;;;10.00;99.90;;;8.46;100.00;100690.63;5009522;28;20030;-75
2023/01/07 09:39:12;;;;;;;5.40;3.00;;;10.00;99.90;;;8.49;100.00;100690.28;5005256;28;20030;-74
2023/01/07 09:42:11;;;;;;;5.32;3.38;;;10.00;99.90;;;8.51;100.00;100686.53;5013809;28;20033;-74
2023/01/07 09:45:02;;;;;;;5.57;3.30;;;10.10;99.90;;;8.61;100.00;100687.81;5001636;28;20134;-74
2023/01/07 09:47:32;;;;;;;7.03;2.80;;;10.20;99.90;;;8.62;100.00;100691.38;4994738;28;20035;-75
2023/01/07 09:50:12;;;;;;;3.85;2.50;;;10.20;99.90;;;8.69;100.00;100675.91;4993585;28;20030;-74
2023/01/07 09:52:49;;;;;;;4.72;2.72;;;10.30;99.90;;;8.71;100.00;100682.00;4993557;28;20030;-76
2023/01/07 09:55:27;;;;;;;3.95;2.33;;;10.30;99.90;;;8.78;100.00;100673.84;4991691;28;20041;-75
2023/01/07 09:57:53;;;;;;;3.53;2.20;;;10.30;99.90;;;8.84;100.00;100672.22;5003436;28;20482;-75
2023/01/07 10:00:23;;;;;;;3.90;2.20;;;10.40;99.90;;;8.89;100.00;100664.28;5015532;28;20065;-74
2023/01/07 10:03:19;;;;;;;4.15;2.20;;;10.40;99.90;;;8.95;100.00;100662.63;4991729;28;20072;-73
2023/01/07 10:06:24;;;;;;;3.35;1.90;;;10.50;99.90;;;8.97;100.00;100658.63;5006492;28;20076;-75
2023/01/07 10:09:29;;;;;;;3.03;1.92;;;10.50;99.90;;;9.06;100.00;100656.56;4993449;28;20037;-74
2023/01/07 10:12:28;;;;;;;2.53;1.80;;;10.60;99.90;;;9.17;100.00;100655.09;5008097;28;20039;-73
2023/01/07 10:15:15;;;;;;;2.90;1.70;;;10.60;99.90;;;9.23;100.00;100657.00;5000195;28;20092;-74
2023/01/07 10:18:07;;;;;;;3.38;1.90;;;10.70;99.90;;;9.26;100.00;100650.31;4993095;28;20056;-73
2023/01/07 10:20:53;;;;;;;3.45;2.00;;;10.80;99.90;;;9.32;100.00;100650.31;5008584;28;20042;-74
2023/01/07 10:23:29;;;;;;;4.68;2.10;;;10.80;99.90;;;9.35;100.00;100639.00;4994209;28;20030;-75
2023/01/07 10:25:58;;;;;;;4.50;2.00;;;10.90;99.90;;;9.34;100.00;100639.19;4996412;28;20080;-76
2023/01/07 10:28:49;;;;;;;3.75;1.88;;;10.90;99.90;;;9.39;100.00;100641.31;4992536;28;20367;-74
2023/01/07 10:31:24;;;;;;;2.80;1.73;;;10.90;99.90;;;9.35;100.00;100638.16;4993549;28;20038;-75
2023/01/07 10:33:51;;;;;;;2.85;1.90;;;10.90;99.90;;;9.40;100.00;100634.81;4993722;28;20042;-76
2023/01/07 10:36:51;;;;;;;3.53;2.17;;;10.90;99.90;;;9.38;100.00;100626.84;4994231;28;20515;-74